sensor_id;sensor_type;location;lat;lon;timestamp;P1;durP1;ratioP1;P2;durP2;ratioP2
67352;SDS011;54238;52.278;21.056;2022-10-16T00:01:51;21.00;;;15.10;;
67352;SDS011;54238;52.278;21.056;2022-10-16T00:04:18;20.60;;;13.80;;
67352;SDS011;54238;52.278;21.056;2022-10-16T00:06:47;18.80;;;13.50;;
67352;SDS011;54238;52.278;21.056;2022-10-16T00:09:17;27.80;;;15.90;;
67352;SDS011;54238;52.278;21.056;2022-10-16T00:11:46;22.50;;;14.20;;
67352;SDS011;54238;52.278;21.056;2022-10-16T00:14:14;20.90;;;14.20;;
67352;SDS011;54238;52.278;21.056;2022-10-16T00:16:42;22.70;;;14.60;;
67352;SDS011;54238;52.278;21.056;2022-10-16T00:19:12;21.20;;;15.10;;
67352;SDS011;54238;52.278;21.056;2022-10-16T00:21:39;20.90;;;14.00;;
67352;SDS011;54238;52.278;21.056;2022-10-16T00:24:10;25.90;;;15.00;;
67352;SDS011;54238;52.278;21.056;2022-10-16T00:26:41;26.20;;;15.20;;
67352;SDS011;54238;52.278;21.056;2022-10-16T00:29:10;20.50;;;13.40;;
67352;SDS011;54238;52.278;21.056;2022-10-16T00:31:39;23.20;;;14.30;;
67352;SDS011;54238;52.278;21.056;2022-10-16T00:34:09;21.80;;;13.50;;
67352;SDS011;54238;52.278;21.056;2022-10-16T00:36:38;26.30;;;14.50;;
67352;SDS011;54238;52.278;21.056;2022-10-16T00:39:05;23.80;;;15.10;;
67352;SDS011;54238;52.278;21.056;2022-10-16T00:41:34;23.50;;;15.00;;
67352;SDS011;54238;52.278;21.056;2022-10-16T00:47:22;24.80;;;15.30;;
67352;SDS011;54238;52.278;21.056;2022-10-16T00:50:09;22.10;;;13.50;;
67352;SDS011;54238;52.278;21.056;2022-10-16T00:52:39;21.10;;;14.60;;
67352;SDS011;54238;52.278;21.056;2022-10-16T00:55:12;22.50;;;15.10;;
67352;SDS011;54238;52.278;21.056;2022-10-16T00:57:41;20.70;;;14.90;;
67352;SDS011;54238;52.278;21.056;2022-10-16T01:00:13;19.90;;;14.10;;
67352;SDS011;54238;52.278;21.056;2022-10-16T01:02:58;26.10;;;14.70;;
67352;SDS011;54238;52.278;21.056;2022-10-16T01:05:38;22.50;;;15.50;;
67352;SDS011;54238;52.278;21.056;2022-10-16T01:08:29;23.70;;;15.20;;
67352;SDS011;54238;52.278;21.056;2022-10-16T01:11:22;19.40;;;15.20;;
67352;SDS011;54238;52.278;21.056;2022-10-16T01:17:13;26.00;;;17.40;;
67352;SDS011;54238;52.278;21.056;2022-10-16T01:29:06;25.10;;;17.50;;
67352;SDS011;54238;52.278;21.056;2022-10-16T01:31:59;24.60;;;17.60;;
67352;SDS011;54238;52.278;21.056;2022-10-16T01:34:37;28.10;;;17.20;;
67352;SDS011;54238;52.278;21.056;2022-10-16T01:37:14;27.10;;;17.70;;
67352;SDS011;54238;52.278;21.056;2022-10-16T01:39:54;23.70;;;17.10;;
67352;SDS011;54238;52.278;21.056;2022-10-16T01:42:29;23.30;;;16.90;;
67352;SDS011;54238;52.278;21.056;2022-10-16T01:45:07;24.50;;;17.70;;
67352;SDS011;54238;52.278;21.056;2022-10-16T01:47:38;23.80;;;17.50;;
67352;SDS011;54238;52.278;21.056;2022-10-16T01:50:11;23.90;;;17.70;;
67352;SDS011;54238;52.278;21.056;2022-10-16T01:52:43;23.80;;;17.10;;
67352;SDS011;54238;52.278;21.056;2022-10-16T01:55:21;28.80;;;17.10;;
67352;SDS011;54238;52.278;21.056;2022-10-16T01:57:57;23.90;;;16.40;;
67352;SDS011;54238;52.278;21.056;2022-10-16T02:00:29;25.60;;;17.20;;
67352;SDS011;54238;52.278;21.056;2022-10-16T02:03:01;24.20;;;17.30;;
67352;SDS011;54238;52.278;21.056;2022-10-16T02:08:10;26.50;;;17.90;;
67352;SDS011;54238;52.278;21.056;2022-10-16T02:10:38;23.80;;;16.90;;
67352;SDS011;54238;52.278;21.056;2022-10-16T02:13:13;29.50;;;19.10;;
67352;SDS011;54238;52.278;21.056;2022-10-16T02:15:45;35.10;;;18.30;;
67352;SDS011;54238;52.278;21.056;2022-10-16T02:18:15;26.80;;;17.20;;
67352;SDS011;54238;52.278;21.056;2022-10-16T02:26:43;29.80;;;16.00;;
67352;SDS011;54238;52.278;21.056;2022-10-16T02:29:17;28.20;;;18.40;;
67352;SDS011;54238;52.278;21.056;2022-10-16T02:31:55;25.00;;;17.70;;
67352;SDS011;54238;52.278;21.056;2022-10-16T02:34:32;25.00;;;17.00;;
67352;SDS011;54238;52.278;21.056;2022-10-16T02:37:04;29.60;;;19.10;;
67352;SDS011;54238;52.278;21.056;2022-10-16T02:39:32;23.50;;;17.40;;
67352;SDS011;54238;52.278;21.056;2022-10-16T02:42:04;30.00;;;19.50;;
67352;SDS011;54238;52.278;21.056;2022-10-16T02:44:31;29.70;;;19.70;;
67352;SDS011;54238;52.278;21.056;2022-10-16T02:47:00;30.70;;;18.40;;
67352;SDS011;54238;52.278;21.056;2022-10-16T02:49:27;26.10;;;18.10;;
67352;SDS011;54238;52.278;21.056;2022-10-16T02:51:54;28.70;;;18.70;;
67352;SDS011;54238;52.278;21.056;2022-10-16T02:54:23;24.70;;;18.70;;
67352;SDS011;54238;52.278;21.056;2022-10-16T02:56:53;28.90;;;19.50;;
67352;SDS011;54238;52.278;21.056;2022-10-16T02:59:19;32.60;;;19.60;;
67352;SDS011;54238;52.278;21.056;2022-10-16T03:01:49;28.90;;;18.70;;
67352;SDS011;54238;52.278;21.056;2022-10-16T03:04:18;29.10;;;19.60;;
67352;SDS011;54238;52.278;21.056;2022-10-16T03:06:48;26.00;;;19.40;;
67352;SDS011;54238;52.278;21.056;2022-10-16T03:09:20;29.80;;;20.40;;
67352;SDS011;54238;52.278;21.056;2022-10-16T03:11:49;28.50;;;17.90;;
67352;SDS011;54238;52.278;21.056;2022-10-16T03:14:21;28.10;;;20.20;;
67352;SDS011;54238;52.278;21.056;2022-10-16T03:16:53;32.00;;;21.00;;
67352;SDS011;54238;52.278;21.056;2022-10-16T03:19:22;31.60;;;20.40;;
67352;SDS011;54238;52.278;21.056;2022-10-16T03:21:49;28.10;;;19.20;;
67352;SDS011;54238;52.278;21.056;2022-10-16T03:24:16;33.20;;;21.30;;
67352;SDS011;54238;52.278;21.056;2022-10-16T03:26:45;27.50;;;20.10;;
67352;SDS011;54238;52.278;21.056;2022-10-16T03:29:17;30.30;;;20.10;;
67352;SDS011;54238;52.278;21.056;2022-10-16T03:31:46;29.80;;;18.60;;
67352;SDS011;54238;52.278;21.056;2022-10-16T03:34:16;41.70;;;21.50;;
67352;SDS011;54238;52.278;21.056;2022-10-16T03:36:48;28.00;;;19.20;;
67352;SDS011;54238;52.278;21.056;2022-10-16T03:39:15;29.60;;;19.80;;
67352;SDS011;54238;52.278;21.056;2022-10-16T03:41:44;32.70;;;19.70;;
67352;SDS011;54238;52.278;21.056;2022-10-16T03:44:15;37.10;;;20.10;;
67352;SDS011;54238;52.278;21.056;2022-10-16T03:46:42;30.40;;;19.80;;
67352;SDS011;54238;52.278;21.056;2022-10-16T03:49:10;28.20;;;19.50;;
67352;SDS011;54238;52.278;21.056;2022-10-16T03:51:41;29.10;;;18.20;;
67352;SDS011;54238;52.278;21.056;2022-10-16T03:54:11;30.60;;;19.90;;
67352;SDS011;54238;52.278;21.056;2022-10-16T03:56:40;30.10;;;20.00;;
67352;SDS011;54238;52.278;21.056;2022-10-16T03:59:07;24.50;;;18.10;;
67352;SDS011;54238;52.278;21.056;2022-10-16T04:01:34;28.90;;;19.90;;
67352;SDS011;54238;52.278;21.056;2022-10-16T04:04:01;28.60;;;18.80;;
67352;SDS011;54238;52.278;21.056;2022-10-16T04:06:28;28.80;;;19.80;;
67352;SDS011;54238;52.278;21.056;2022-10-16T04:08:58;30.30;;;19.90;;
67352;SDS011;54238;52.278;21.056;2022-10-16T04:11:27;28.60;;;19.90;;
67352;SDS011;54238;52.278;21.056;2022-10-16T04:13:59;30.20;;;19.60;;
67352;SDS011;54238;52.278;21.056;2022-10-16T04:16:26;25.20;;;19.80;;
67352;SDS011;54238;52.278;21.056;2022-10-16T04:18:53;31.40;;;19.00;;
67352;SDS011;54238;52.278;21.056;2022-10-16T04:21:20;29.70;;;20.10;;
67352;SDS011;54238;52.278;21.056;2022-10-16T04:23:49;32.00;;;19.40;;
67352;SDS011;54238;52.278;21.056;2022-10-16T04:26:20;25.00;;;19.40;;
67352;SDS011;54238;52.278;21.056;2022-10-16T04:28:52;33.10;;;18.90;;
67352;SDS011;54238;52.278;21.056;2022-10-16T04:31:20;29.50;;;19.80;;
67352;SDS011;54238;52.278;21.056;2022-10-16T04:33:49;26.70;;;18.10;;
67352;SDS011;54238;52.278;21.056;2022-10-16T04:36:16;29.00;;;19.90;;
67352;SDS011;54238;52.278;21.056;2022-10-16T04:38:50;27.80;;;19.00;;
67352;SDS011;54238;52.278;21.056;2022-10-16T04:41:17;26.50;;;19.60;;
67352;SDS011;54238;52.278;21.056;2022-10-16T04:43:44;34.40;;;18.30;;
67352;SDS011;54238;52.278;21.056;2022-10-16T04:46:12;26.60;;;17.50;;
67352;SDS011;54238;52.278;21.056;2022-10-16T04:48:44;29.20;;;19.10;;
67352;SDS011;54238;52.278;21.056;2022-10-16T04:51:13;30.50;;;17.70;;
67352;SDS011;54238;52.278;21.056;2022-10-16T04:53:42;25.50;;;17.40;;
67352;SDS011;54238;52.278;21.056;2022-10-16T04:56:12;26.70;;;17.40;;
67352;SDS011;54238;52.278;21.056;2022-10-16T04:58:41;28.40;;;18.00;;
67352;SDS011;54238;52.278;21.056;2022-10-16T05:01:12;23.90;;;16.70;;
67352;SDS011;54238;52.278;21.056;2022-10-16T05:03:42;24.40;;;17.00;;
67352;SDS011;54238;52.278;21.056;2022-10-16T05:06:11;26.90;;;17.60;;
67352;SDS011;54238;52.278;21.056;2022-10-16T05:08:41;29.20;;;18.90;;
67352;SDS011;54238;52.278;21.056;2022-10-16T05:11:13;27.50;;;17.00;;
67352;SDS011;54238;52.278;21.056;2022-10-16T05:13:46;24.80;;;16.70;;
67352;SDS011;54238;52.278;21.056;2022-10-16T05:16:17;31.10;;;17.80;;
67352;SDS011;54238;52.278;21.056;2022-10-16T05:18:47;25.10;;;16.50;;
67352;SDS011;54238;52.278;21.056;2022-10-16T05:21:17;29.10;;;15.80;;
67352;SDS011;54238;52.278;21.056;2022-10-16T05:23:46;29.00;;;17.70;;
67352;SDS011;54238;52.278;21.056;2022-10-16T05:26:15;24.00;;;17.10;;
67352;SDS011;54238;52.278;21.056;2022-10-16T05:28:46;24.10;;;17.40;;
67352;SDS011;54238;52.278;21.056;2022-10-16T05:31:13;24.90;;;16.40;;
67352;SDS011;54238;52.278;21.056;2022-10-16T05:33:40;23.00;;;16.80;;
67352;SDS011;54238;52.278;21.056;2022-10-16T05:36:10;24.80;;;17.30;;
67352;SDS011;54238;52.278;21.056;2022-10-16T05:38:42;21.00;;;15.40;;
67352;SDS011;54238;52.278;21.056;2022-10-16T05:41:09;30.60;;;16.10;;
67352;SDS011;54238;52.278;21.056;2022-10-16T05:43:39;24.70;;;16.00;;
67352;SDS011;54238;52.278;21.056;2022-10-16T05:46:10;25.90;;;15.70;;
67352;SDS011;54238;52.278;21.056;2022-10-16T05:48:37;28.00;;;17.60;;
67352;SDS011;54238;52.278;21.056;2022-10-16T05:51:06;24.60;;;16.80;;
67352;SDS011;54238;52.278;21.056;2022-10-16T05:53:39;22.00;;;16.30;;
67352;SDS011;54238;52.278;21.056;2022-10-16T05:56:10;21.40;;;15.20;;
67352;SDS011;54238;52.278;21.056;2022-10-16T05:58:42;25.00;;;16.20;;
67352;SDS011;54238;52.278;21.056;2022-10-16T06:01:18;25.60;;;17.20;;
67352;SDS011;54238;52.278;21.056;2022-10-16T06:03:46;23.50;;;16.50;;
67352;SDS011;54238;52.278;21.056;2022-10-16T06:06:20;24.40;;;15.80;;
67352;SDS011;54238;52.278;21.056;2022-10-16T06:08:53;22.10;;;16.20;;
67352;SDS011;54238;52.278;21.056;2022-10-16T06:11:25;23.40;;;15.50;;
67352;SDS011;54238;52.278;21.056;2022-10-16T06:13:57;32.00;;;18.40;;
67352;SDS011;54238;52.278;21.056;2022-10-16T06:16:26;26.40;;;16.10;;
67352;SDS011;54238;52.278;21.056;2022-10-16T06:18:54;28.30;;;16.60;;
67352;SDS011;54238;52.278;21.056;2022-10-16T06:21:27;26.10;;;15.50;;
67352;SDS011;54238;52.278;21.056;2022-10-16T06:23:56;30.80;;;17.00;;
67352;SDS011;54238;52.278;21.056;2022-10-16T06:26:29;22.20;;;16.20;;
67352;SDS011;54238;52.278;21.056;2022-10-16T06:29:00;25.70;;;15.90;;
67352;SDS011;54238;52.278;21.056;2022-10-16T06:31:32;22.50;;;16.50;;
67352;SDS011;54238;52.278;21.056;2022-10-16T06:34:00;21.10;;;14.80;;
67352;SDS011;54238;52.278;21.056;2022-10-16T06:36:31;24.40;;;16.50;;
67352;SDS011;54238;52.278;21.056;2022-10-16T06:39:02;23.70;;;15.20;;
67352;SDS011;54238;52.278;21.056;2022-10-16T06:41:30;20.20;;;15.00;;
67352;SDS011;54238;52.278;21.056;2022-10-16T06:43:59;17.60;;;12.60;;
67352;SDS011;54238;52.278;21.056;2022-10-16T06:46:31;22.00;;;15.40;;
67352;SDS011;54238;52.278;21.056;2022-10-16T06:49:00;23.80;;;16.00;;
67352;SDS011;54238;52.278;21.056;2022-10-16T06:51:27;26.80;;;15.10;;
67352;SDS011;54238;52.278;21.056;2022-10-16T06:53:55;26.50;;;16.80;;
67352;SDS011;54238;52.278;21.056;2022-10-16T06:56:26;24.50;;;16.20;;
67352;SDS011;54238;52.278;21.056;2022-10-16T06:58:54;29.70;;;16.60;;
67352;SDS011;54238;52.278;21.056;2022-10-16T07:01:23;21.30;;;15.70;;
67352;SDS011;54238;52.278;21.056;2022-10-16T07:03:57;23.40;;;16.10;;
67352;SDS011;54238;52.278;21.056;2022-10-16T07:06:25;20.80;;;15.40;;
67352;SDS011;54238;52.278;21.056;2022-10-16T07:08:55;23.80;;;16.00;;
67352;SDS011;54238;52.278;21.056;2022-10-16T07:11:25;26.00;;;14.40;;
67352;SDS011;54238;52.278;21.056;2022-10-16T07:13:54;22.90;;;15.40;;
67352;SDS011;54238;52.278;21.056;2022-10-16T07:16:27;29.10;;;16.00;;
67352;SDS011;54238;52.278;21.056;2022-10-16T07:18:58;19.70;;;14.60;;
67352;SDS011;54238;52.278;21.056;2022-10-16T07:21:30;21.30;;;14.60;;
67352;SDS011;54238;52.278;21.056;2022-10-16T07:24:05;21.40;;;14.20;;
67352;SDS011;54238;52.278;21.056;2022-10-16T07:26:37;21.80;;;14.30;;
67352;SDS011;54238;52.278;21.056;2022-10-16T07:29:20;24.00;;;14.70;;
67352;SDS011;54238;52.278;21.056;2022-10-16T07:31:48;20.40;;;14.30;;
67352;SDS011;54238;52.278;21.056;2022-10-16T07:34:17;20.10;;;14.10;;
67352;SDS011;54238;52.278;21.056;2022-10-16T07:36:49;19.80;;;14.30;;
67352;SDS011;54238;52.278;21.056;2022-10-16T07:39:17;19.80;;;14.00;;
67352;SDS011;54238;52.278;21.056;2022-10-16T07:41:49;16.00;;;12.60;;
67352;SDS011;54238;52.278;21.056;2022-10-16T07:44:16;22.30;;;13.90;;
67352;SDS011;54238;52.278;21.056;2022-10-16T07:46:43;28.80;;;15.00;;
67352;SDS011;54238;52.278;21.056;2022-10-16T07:49:10;17.90;;;13.30;;
67352;SDS011;54238;52.278;21.056;2022-10-16T07:51:37;19.80;;;14.00;;
67352;SDS011;54238;52.278;21.056;2022-10-16T07:54:09;24.90;;;15.70;;
67352;SDS011;54238;52.278;21.056;2022-10-16T07:56:42;20.00;;;13.00;;
67352;SDS011;54238;52.278;21.056;2022-10-16T07:59:11;19.00;;;13.10;;
67352;SDS011;54238;52.278;21.056;2022-10-16T08:01:41;21.00;;;13.60;;
67352;SDS011;54238;52.278;21.056;2022-10-16T08:04:10;21.00;;;13.00;;
67352;SDS011;54238;52.278;21.056;2022-10-16T08:06:39;18.50;;;14.00;;
67352;SDS011;54238;52.278;21.056;2022-10-16T08:09:09;18.80;;;13.60;;
67352;SDS011;54238;52.278;21.056;2022-10-16T08:11:41;19.90;;;14.10;;
67352;SDS011;54238;52.278;21.056;2022-10-16T08:14:07;25.90;;;14.30;;
67352;SDS011;54238;52.278;21.056;2022-10-16T08:16:36;24.20;;;14.50;;
67352;SDS011;54238;52.278;21.056;2022-10-16T08:19:04;30.20;;;13.30;;
67352;SDS011;54238;52.278;21.056;2022-10-16T08:21:31;23.80;;;13.80;;
67352;SDS011;54238;52.278;21.056;2022-10-16T08:23:57;16.10;;;12.70;;
67352;SDS011;54238;52.278;21.056;2022-10-16T08:26:26;19.00;;;12.90;;
67352;SDS011;54238;52.278;21.056;2022-10-16T08:28:55;18.90;;;12.80;;
67352;SDS011;54238;52.278;21.056;2022-10-16T08:31:25;14.90;;;11.40;;
67352;SDS011;54238;52.278;21.056;2022-10-16T08:33:58;14.30;;;11.20;;
67352;SDS011;54238;52.278;21.056;2022-10-16T08:36:27;18.50;;;12.00;;
67352;SDS011;54238;52.278;21.056;2022-10-16T08:38:55;16.80;;;11.70;;
67352;SDS011;54238;52.278;21.056;2022-10-16T08:44:41;17.80;;;12.00;;
67352;SDS011;54238;52.278;21.056;2022-10-16T08:47:21;18.50;;;11.70;;
67352;SDS011;54238;52.278;21.056;2022-10-16T08:49:59;14.60;;;11.40;;
67352;SDS011;54238;52.278;21.056;2022-10-16T08:52:42;20.10;;;12.40;;
67352;SDS011;54238;52.278;21.056;2022-10-16T08:55:25;16.20;;;11.60;;
67352;SDS011;54238;52.278;21.056;2022-10-16T08:58:00;18.60;;;12.40;;
67352;SDS011;54238;52.278;21.056;2022-10-16T09:00:33;16.70;;;11.00;;
67352;SDS011;54238;52.278;21.056;2022-10-16T09:05:52;19.10;;;12.30;;
67352;SDS011;54238;52.278;21.056;2022-10-16T09:08:46;14.80;;;11.90;;
67352;SDS011;54238;52.278;21.056;2022-10-16T09:18:05;16.50;;;11.00;;
67352;SDS011;54238;52.278;21.056;2022-10-16T09:23:36;15.10;;;11.20;;
67352;SDS011;54238;52.278;21.056;2022-10-16T09:26:05;18.20;;;11.70;;
67352;SDS011;54238;52.278;21.056;2022-10-16T09:28:38;13.00;;;10.40;;
67352;SDS011;54238;52.278;21.056;2022-10-16T09:31:16;14.30;;;10.40;;
67352;SDS011;54238;52.278;21.056;2022-10-16T09:34:01;16.00;;;10.30;;
67352;SDS011;54238;52.278;21.056;2022-10-16T09:36:39;15.00;;;10.80;;
67352;SDS011;54238;52.278;21.056;2022-10-16T09:39:10;15.80;;;11.40;;
67352;SDS011;54238;52.278;21.056;2022-10-16T09:41:42;14.50;;;11.00;;
67352;SDS011;54238;52.278;21.056;2022-10-16T09:47:05;16.30;;;9.70;;
67352;SDS011;54238;52.278;21.056;2022-10-16T09:49:53;17.50;;;10.40;;
67352;SDS011;54238;52.278;21.056;2022-10-16T09:52:26;13.20;;;10.10;;
67352;SDS011;54238;52.278;21.056;2022-10-16T09:54:57;14.90;;;9.80;;
67352;SDS011;54238;52.278;21.056;2022-10-16T09:57:51;15.40;;;10.60;;
67352;SDS011;54238;52.278;21.056;2022-10-16T10:00:22;18.00;;;11.40;;
67352;SDS011;54238;52.278;21.056;2022-10-16T10:02:51;12.80;;;10.00;;
67352;SDS011;54238;52.278;21.056;2022-10-16T10:05:28;14.10;;;10.40;;
67352;SDS011;54238;52.278;21.056;2022-10-16T10:08:00;12.70;;;10.30;;
67352;SDS011;54238;52.278;21.056;2022-10-16T10:10:37;14.70;;;9.90;;
67352;SDS011;54238;52.278;21.056;2022-10-16T10:13:22;14.10;;;10.60;;
67352;SDS011;54238;52.278;21.056;2022-10-16T10:15:58;16.20;;;10.90;;
67352;SDS011;54238;52.278;21.056;2022-10-16T10:18:25;17.10;;;10.60;;
67352;SDS011;54238;52.278;21.056;2022-10-16T10:21:02;15.50;;;10.70;;
67352;SDS011;54238;52.278;21.056;2022-10-16T10:23:34;18.70;;;11.10;;
67352;SDS011;54238;52.278;21.056;2022-10-16T10:26:22;14.10;;;9.90;;
67352;SDS011;54238;52.278;21.056;2022-10-16T10:32:36;13.50;;;10.50;;
67352;SDS011;54238;52.278;21.056;2022-10-16T10:35:22;17.50;;;11.20;;
67352;SDS011;54238;52.278;21.056;2022-10-16T10:38:03;13.60;;;10.80;;
67352;SDS011;54238;52.278;21.056;2022-10-16T10:41:01;13.60;;;10.90;;
67352;SDS011;54238;52.278;21.056;2022-10-16T11:05:38;13.70;;;9.40;;
67352;SDS011;54238;52.278;21.056;2022-10-16T11:08:25;15.00;;;10.40;;
67352;SDS011;54238;52.278;21.056;2022-10-16T11:11:02;14.20;;;9.60;;
67352;SDS011;54238;52.278;21.056;2022-10-16T11:14:00;14.30;;;10.60;;
67352;SDS011;54238;52.278;21.056;2022-10-16T11:16:36;14.50;;;9.80;;
67352;SDS011;54238;52.278;21.056;2022-10-16T11:23:21;15.10;;;10.30;;
67352;SDS011;54238;52.278;21.056;2022-10-16T11:26:04;12.70;;;9.20;;
67352;SDS011;54238;52.278;21.056;2022-10-16T11:28:48;17.60;;;10.80;;
67352;SDS011;54238;52.278;21.056;2022-10-16T11:31:36;14.80;;;9.30;;
67352;SDS011;54238;52.278;21.056;2022-10-16T11:37:02;16.50;;;9.40;;
67352;SDS011;54238;52.278;21.056;2022-10-16T11:39:39;14.20;;;9.60;;
67352;SDS011;54238;52.278;21.056;2022-10-16T11:42:18;11.30;;;9.50;;
67352;SDS011;54238;52.278;21.056;2022-10-16T11:44:53;10.70;;;8.80;;
67352;SDS011;54238;52.278;21.056;2022-10-16T11:47:45;11.90;;;8.80;;
67352;SDS011;54238;52.278;21.056;2022-10-16T11:50:35;13.60;;;9.30;;
67352;SDS011;54238;52.278;21.056;2022-10-16T11:53:28;10.50;;;8.20;;
67352;SDS011;54238;52.278;21.056;2022-10-16T11:56:07;10.90;;;7.90;;
67352;SDS011;54238;52.278;21.056;2022-10-16T11:58:45;12.80;;;8.80;;
67352;SDS011;54238;52.278;21.056;2022-10-16T12:01:25;12.00;;;8.70;;
67352;SDS011;54238;52.278;21.056;2022-10-16T12:04:26;10.90;;;8.90;;
67352;SDS011;54238;52.278;21.056;2022-10-16T12:07:09;12.40;;;7.60;;
67352;SDS011;54238;52.278;21.056;2022-10-16T12:09:41;11.00;;;8.30;;
67352;SDS011;54238;52.278;21.056;2022-10-16T12:12:43;9.70;;;7.70;;
67352;SDS011;54238;52.278;21.056;2022-10-16T12:15:23;11.40;;;7.60;;
67352;SDS011;54238;52.278;21.056;2022-10-16T12:18:00;10.90;;;8.20;;
67352;SDS011;54238;52.278;21.056;2022-10-16T12:20:33;11.90;;;8.70;;
67352;SDS011;54238;52.278;21.056;2022-10-16T12:25:39;12.80;;;9.40;;
67352;SDS011;54238;52.278;21.056;2022-10-16T12:30:55;10.60;;;8.60;;
67352;SDS011;54238;52.278;21.056;2022-10-16T12:35:53;10.60;;;8.40;;
67352;SDS011;54238;52.278;21.056;2022-10-16T12:38:47;14.30;;;11.30;;
67352;SDS011;54238;52.278;21.056;2022-10-16T12:41:30;12.60;;;9.60;;
67352;SDS011;54238;52.278;21.056;2022-10-16T12:44:00;17.30;;;9.40;;
67352;SDS011;54238;52.278;21.056;2022-10-16T12:51:42;11.00;;;8.30;;
67352;SDS011;54238;52.278;21.056;2022-10-16T12:54:19;10.40;;;9.10;;
67352;SDS011;54238;52.278;21.056;2022-10-16T13:05:55;14.90;;;10.50;;
67352;SDS011;54238;52.278;21.056;2022-10-16T13:17:09;15.30;;;10.50;;
67352;SDS011;54238;52.278;21.056;2022-10-16T13:20:11;16.80;;;10.00;;
67352;SDS011;54238;52.278;21.056;2022-10-16T13:25:46;19.10;;;10.10;;
67352;SDS011;54238;52.278;21.056;2022-10-16T13:28:19;13.80;;;9.30;;
67352;SDS011;54238;52.278;21.056;2022-10-16T13:30:56;15.70;;;10.70;;
67352;SDS011;54238;52.278;21.056;2022-10-16T13:36:06;14.00;;;9.40;;
67352;SDS011;54238;52.278;21.056;2022-10-16T13:38:45;15.40;;;10.30;;
67352;SDS011;54238;52.278;21.056;2022-10-16T13:41:17;13.90;;;9.80;;
67352;SDS011;54238;52.278;21.056;2022-10-16T13:43:52;11.70;;;9.50;;
67352;SDS011;54238;52.278;21.056;2022-10-16T13:46:25;15.90;;;9.20;;
67352;SDS011;54238;52.278;21.056;2022-10-16T13:49:00;15.80;;;10.00;;
67352;SDS011;54238;52.278;21.056;2022-10-16T13:51:33;15.50;;;8.70;;
67352;SDS011;54238;52.278;21.056;2022-10-16T13:54:04;11.60;;;8.60;;
67352;SDS011;54238;52.278;21.056;2022-10-16T13:56:35;13.40;;;9.70;;
67352;SDS011;54238;52.278;21.056;2022-10-16T13:59:27;11.50;;;9.20;;
67352;SDS011;54238;52.278;21.056;2022-10-16T14:02:21;16.40;;;9.40;;
67352;SDS011;54238;52.278;21.056;2022-10-16T14:05:08;11.30;;;9.20;;
67352;SDS011;54238;52.278;21.056;2022-10-16T14:07:37;11.70;;;8.60;;
67352;SDS011;54238;52.278;21.056;2022-10-16T14:10:07;11.20;;;8.60;;
67352;SDS011;54238;52.278;21.056;2022-10-16T14:13:03;12.30;;;9.10;;
67352;SDS011;54238;52.278;21.056;2022-10-16T14:15:35;14.30;;;8.10;;
67352;SDS011;54238;52.278;21.056;2022-10-16T14:18:05;11.50;;;8.10;;
67352;SDS011;54238;52.278;21.056;2022-10-16T14:20:33;15.00;;;8.90;;
67352;SDS011;54238;52.278;21.056;2022-10-16T14:28:43;11.40;;;9.00;;
67352;SDS011;54238;52.278;21.056;2022-10-16T14:31:25;15.40;;;8.40;;
67352;SDS011;54238;52.278;21.056;2022-10-16T14:33:58;15.80;;;9.30;;
67352;SDS011;54238;52.278;21.056;2022-10-16T14:36:27;13.10;;;8.90;;
67352;SDS011;54238;52.278;21.056;2022-10-16T14:39:04;14.50;;;9.50;;
67352;SDS011;54238;52.278;21.056;2022-10-16T14:41:49;13.40;;;9.40;;
67352;SDS011;54238;52.278;21.056;2022-10-16T14:44:27;11.50;;;8.70;;
67352;SDS011;54238;52.278;21.056;2022-10-16T14:46:57;16.50;;;9.40;;
67352;SDS011;54238;52.278;21.056;2022-10-16T14:49:28;14.30;;;9.00;;
67352;SDS011;54238;52.278;21.056;2022-10-16T14:51:58;14.80;;;8.70;;
67352;SDS011;54238;52.278;21.056;2022-10-16T14:54:25;12.80;;;8.60;;
67352;SDS011;54238;52.278;21.056;2022-10-16T14:56:56;13.60;;;8.90;;
67352;SDS011;54238;52.278;21.056;2022-10-16T14:59:37;10.30;;;8.30;;
67352;SDS011;54238;52.278;21.056;2022-10-16T15:02:35;12.10;;;8.60;;
67352;SDS011;54238;52.278;21.056;2022-10-16T15:07:54;13.40;;;8.80;;
67352;SDS011;54238;52.278;21.056;2022-10-16T15:10:27;13.40;;;9.20;;
67352;SDS011;54238;52.278;21.056;2022-10-16T15:13:02;16.00;;;9.50;;
67352;SDS011;54238;52.278;21.056;2022-10-16T15:15:34;17.20;;;8.90;;
67352;SDS011;54238;52.278;21.056;2022-10-16T15:18:04;15.70;;;8.90;;
67352;SDS011;54238;52.278;21.056;2022-10-16T15:20:38;12.90;;;9.50;;
67352;SDS011;54238;52.278;21.056;2022-10-16T15:23:13;16.30;;;9.60;;
67352;SDS011;54238;52.278;21.056;2022-10-16T15:28:19;13.30;;;10.00;;
67352;SDS011;54238;52.278;21.056;2022-10-16T15:30:50;14.70;;;8.90;;
67352;SDS011;54238;52.278;21.056;2022-10-16T15:33:23;13.20;;;9.50;;
67352;SDS011;54238;52.278;21.056;2022-10-16T15:35:54;15.80;;;9.70;;
67352;SDS011;54238;52.278;21.056;2022-10-16T15:38:30;11.20;;;8.80;;
67352;SDS011;54238;52.278;21.056;2022-10-16T15:40:59;13.40;;;8.60;;
67352;SDS011;54238;52.278;21.056;2022-10-16T15:43:31;13.60;;;9.20;;
67352;SDS011;54238;52.278;21.056;2022-10-16T15:46:09;13.40;;;10.50;;
67352;SDS011;54238;52.278;21.056;2022-10-16T15:48:40;15.40;;;9.60;;
67352;SDS011;54238;52.278;21.056;2022-10-16T15:51:12;13.50;;;8.40;;
67352;SDS011;54238;52.278;21.056;2022-10-16T15:53:42;10.90;;;8.50;;
67352;SDS011;54238;52.278;21.056;2022-10-16T15:56:12;12.80;;;8.40;;
67352;SDS011;54238;52.278;21.056;2022-10-16T15:58:40;12.60;;;8.60;;
67352;SDS011;54238;52.278;21.056;2022-10-16T16:01:12;12.50;;;9.60;;
67352;SDS011;54238;52.278;21.056;2022-10-16T16:03:39;18.10;;;9.80;;
67352;SDS011;54238;52.278;21.056;2022-10-16T16:06:09;12.50;;;9.30;;
67352;SDS011;54238;52.278;21.056;2022-10-16T16:08:39;16.50;;;9.60;;
67352;SDS011;54238;52.278;21.056;2022-10-16T16:11:14;17.00;;;10.10;;
67352;SDS011;54238;52.278;21.056;2022-10-16T16:13:45;13.80;;;9.70;;
67352;SDS011;54238;52.278;21.056;2022-10-16T16:16:17;17.30;;;10.20;;
67352;SDS011;54238;52.278;21.056;2022-10-16T16:18:46;13.70;;;9.60;;
67352;SDS011;54238;52.278;21.056;2022-10-16T16:21:18;12.60;;;9.40;;
67352;SDS011;54238;52.278;21.056;2022-10-16T16:23:47;13.30;;;9.20;;
67352;SDS011;54238;52.278;21.056;2022-10-16T16:26:24;13.40;;;9.20;;
67352;SDS011;54238;52.278;21.056;2022-10-16T16:28:55;18.90;;;10.60;;
67352;SDS011;54238;52.278;21.056;2022-10-16T16:31:26;14.70;;;10.60;;
67352;SDS011;54238;52.278;21.056;2022-10-16T16:33:57;24.60;;;10.90;;
67352;SDS011;54238;52.278;21.056;2022-10-16T16:36:26;22.10;;;10.90;;
67352;SDS011;54238;52.278;21.056;2022-10-16T16:38:53;13.40;;;10.40;;
67352;SDS011;54238;52.278;21.056;2022-10-16T16:41:24;18.20;;;10.40;;
67352;SDS011;54238;52.278;21.056;2022-10-16T16:43:54;22.40;;;9.60;;
67352;SDS011;54238;52.278;21.056;2022-10-16T16:46:33;16.50;;;10.60;;
67352;SDS011;54238;52.278;21.056;2022-10-16T16:49:03;17.60;;;11.40;;